createdAt,value
2019-03-24T00:00:29.827Z,995.89
2019-03-24T00:01:40.450Z,995.84
2019-03-24T00:02:30.189Z,995.87
2019-03-24T00:03:30.469Z,995.85
2019-03-24T00:04:30.530Z,995.86
2019-03-24T00:05:30.706Z,995.83
2019-03-24T00:06:30.895Z,995.82
2019-03-24T00:07:31.086Z,995.80
2019-03-24T00:08:31.272Z,995.76
2019-03-24T00:09:31.453Z,995.79
2019-03-24T00:10:31.635Z,995.80
2019-03-24T00:11:31.826Z,995.82
2019-03-24T00:12:32.010Z,995.79
2019-03-24T00:13:32.195Z,995.78
2019-03-24T00:14:32.379Z,995.77
2019-03-24T00:15:32.564Z,995.77
2019-03-24T00:16:32.747Z,995.78
2019-03-24T00:17:32.931Z,995.74
2019-03-24T00:18:33.116Z,995.74
2019-03-24T00:19:33.317Z,995.76
2019-03-24T00:20:33.507Z,995.74
2019-03-24T00:21:33.686Z,995.72
2019-03-24T00:22:33.863Z,995.75
2019-03-24T00:23:34.045Z,995.75
2019-03-24T00:24:34.237Z,995.78
2019-03-24T00:25:34.421Z,995.76
2019-03-24T00:26:34.605Z,995.71
2019-03-24T00:27:34.779Z,995.65
2019-03-24T00:28:34.964Z,995.62
2019-03-24T00:29:35.139Z,995.61
2019-03-24T00:30:35.321Z,995.60
2019-03-24T00:31:35.503Z,995.60
2019-03-24T00:32:35.718Z,995.60
2019-03-24T00:33:35.879Z,995.62
2019-03-24T00:34:36.060Z,995.60
2019-03-24T00:35:36.243Z,995.58
2019-03-24T00:36:36.422Z,995.58
2019-03-24T00:37:36.614Z,995.56
2019-03-24T00:38:36.795Z,995.54
2019-03-24T00:39:36.978Z,995.55
2019-03-24T00:40:37.157Z,995.56
2019-03-24T00:41:37.346Z,995.58
2019-03-24T00:42:37.535Z,995.52
2019-03-24T00:43:37.722Z,995.53
2019-03-24T00:44:37.904Z,995.53
2019-03-24T00:45:38.090Z,995.47
2019-03-24T00:46:38.275Z,995.46
2019-03-24T00:47:38.458Z,995.48
2019-03-24T00:48:38.642Z,995.44
2019-03-24T00:49:38.833Z,995.43
2019-03-24T00:50:39.008Z,995.46
2019-03-24T00:51:39.188Z,995.47
2019-03-24T00:52:39.374Z,995.44
2019-03-24T00:53:39.556Z,995.40
2019-03-24T00:54:39.744Z,995.38
2019-03-24T00:55:39.925Z,995.42
2019-03-24T00:56:40.109Z,995.33
2019-03-24T00:57:40.292Z,995.31
2019-03-24T00:58:40.466Z,995.31
2019-03-24T00:59:40.653Z,995.32
2019-03-24T01:00:40.838Z,995.28
2019-03-24T01:01:41.016Z,995.31
2019-03-24T01:02:41.211Z,995.27
2019-03-24T01:03:41.388Z,995.29
2019-03-24T01:04:41.578Z,995.29
2019-03-24T01:05:41.757Z,995.24
2019-03-24T01:06:41.957Z,995.26
2019-03-24T01:07:42.123Z,995.24
2019-03-24T01:08:42.304Z,995.25
2019-03-24T01:09:42.486Z,995.24
2019-03-24T01:10:42.668Z,995.25
2019-03-24T01:11:42.862Z,995.26
2019-03-24T01:12:43.049Z,995.25
2019-03-24T01:13:43.232Z,995.24
2019-03-24T01:14:43.415Z,995.26
2019-03-24T01:15:48.019Z,995.29
2019-03-24T01:16:43.779Z,995.31
2019-03-24T01:17:43.956Z,995.26
2019-03-24T01:18:44.145Z,995.26
2019-03-24T01:19:44.343Z,995.26
2019-03-24T01:20:44.531Z,995.25
2019-03-24T01:21:44.702Z,995.25
2019-03-24T01:22:44.881Z,995.25
2019-03-24T01:23:45.068Z,995.23
2019-03-24T01:24:45.252Z,995.20
2019-03-24T01:25:45.445Z,995.22
2019-03-24T01:26:45.636Z,995.22
2019-03-24T01:27:45.824Z,995.20
2019-03-24T01:28:46.002Z,995.20
2019-03-24T01:29:46.196Z,995.19
2019-03-24T01:30:46.381Z,995.23
2019-03-24T01:31:46.568Z,995.19
2019-03-24T01:32:46.752Z,995.19
2019-03-24T01:33:46.934Z,995.18
2019-03-24T01:37:30.484Z,995.14
2019-03-24T01:38:30.667Z,995.17
2019-03-24T01:39:30.862Z,995.18
2019-03-24T01:40:31.030Z,995.14
2019-03-24T01:41:31.209Z,995.18
2019-03-24T01:42:31.392Z,995.17
2019-03-24T01:43:31.571Z,995.17
2019-03-24T01:44:31.750Z,995.23
2019-03-24T01:45:31.932Z,995.21
2019-03-24T01:46:32.109Z,995.21
2019-03-24T01:47:32.296Z,995.24
2019-03-24T01:48:32.477Z,995.20
2019-03-24T01:49:32.667Z,995.24
2019-03-24T01:50:32.843Z,995.20
2019-03-24T01:51:33.028Z,995.21
2019-03-24T01:52:33.209Z,995.21
2019-03-24T01:53:33.389Z,995.23
2019-03-24T01:54:33.571Z,995.19
2019-03-24T01:55:33.748Z,995.20
2019-03-24T01:56:33.941Z,995.19
2019-03-24T01:57:34.132Z,995.22
2019-03-24T01:58:34.313Z,995.19
2019-03-24T01:59:34.503Z,995.17
2019-03-24T02:00:34.695Z,995.20
2019-03-24T02:01:34.871Z,995.17
2019-03-24T02:02:35.052Z,995.18
2019-03-24T02:03:35.233Z,995.17
2019-03-24T02:04:35.415Z,995.17
2019-03-24T02:05:35.594Z,995.17
2019-03-24T02:06:35.783Z,995.22
2019-03-24T02:07:35.961Z,995.17
2019-03-24T02:08:36.145Z,995.18
2019-03-24T02:09:36.333Z,995.16
2019-03-24T02:10:36.521Z,995.18
2019-03-24T02:11:36.701Z,995.17
2019-03-24T02:12:36.885Z,995.13
2019-03-24T02:13:37.067Z,995.16
2019-03-24T02:14:37.255Z,995.15
2019-03-24T02:15:37.425Z,995.10
2019-03-24T02:16:37.623Z,995.11
2019-03-24T02:17:37.801Z,995.11
2019-03-24T02:18:37.981Z,995.11
2019-03-24T02:19:38.157Z,995.06
2019-03-24T02:20:38.339Z,995.10
2019-03-24T02:21:38.524Z,995.09
2019-03-24T02:22:38.720Z,995.11
2019-03-24T02:23:38.902Z,995.07
2019-03-24T02:24:39.084Z,995.06
2019-03-24T02:25:39.267Z,995.06
2019-03-24T02:26:39.457Z,995.07
2019-03-24T02:27:39.629Z,995.03
2019-03-24T02:28:39.815Z,995.03
2019-03-24T02:29:39.999Z,995.01
2019-03-24T02:30:40.172Z,995.00
2019-03-24T02:31:40.364Z,995.00
2019-03-24T02:32:40.554Z,995.00
2019-03-24T02:33:40.747Z,995.01
2019-03-24T02:34:40.920Z,994.96
2019-03-24T02:35:41.109Z,994.95
2019-03-24T02:36:41.294Z,994.97
2019-03-24T02:37:41.477Z,994.98
2019-03-24T02:38:41.659Z,995.01
2019-03-24T02:39:41.845Z,995.02
2019-03-24T02:40:42.023Z,994.99
2019-03-24T02:41:42.200Z,994.98
2019-03-24T02:42:42.386Z,994.95
2019-03-24T02:43:42.568Z,994.95
2019-03-24T02:44:42.746Z,994.94
2019-03-24T02:45:42.926Z,994.96
2019-03-24T02:46:43.110Z,994.96
2019-03-24T02:47:43.291Z,994.90
2019-03-24T02:48:43.471Z,994.93
2019-03-24T02:49:43.656Z,994.96
2019-03-24T02:50:43.841Z,994.89
2019-03-24T02:51:44.015Z,994.92
2019-03-24T02:52:44.200Z,994.87
2019-03-24T02:53:44.383Z,994.89
2019-03-24T02:54:44.569Z,994.90
2019-03-24T02:55:44.745Z,994.89
2019-03-24T02:56:44.924Z,994.87
2019-03-24T02:57:45.103Z,994.84
2019-03-24T02:58:45.288Z,994.84
2019-03-24T02:59:45.473Z,994.85
2019-03-24T03:00:45.650Z,994.85
2019-03-24T03:01:45.834Z,994.89
2019-03-24T03:02:46.015Z,994.91
2019-03-24T03:03:46.192Z,994.87
2019-03-24T03:04:46.385Z,994.89
2019-03-24T03:05:46.565Z,994.85
2019-03-24T03:06:46.749Z,994.87
2019-03-24T03:07:46.932Z,994.87
2019-03-24T03:08:47.127Z,994.87
2019-03-24T03:09:47.306Z,994.87
2019-03-24T03:10:47.473Z,994.89
2019-03-24T03:11:47.672Z,994.87
2019-03-24T03:12:47.955Z,994.86
2019-03-24T03:13:48.043Z,994.88
2019-03-24T03:14:48.225Z,994.89
2019-03-24T03:15:48.409Z,994.88
2019-03-24T03:16:48.600Z,994.88
2019-03-24T03:17:48.781Z,994.90
2019-03-24T03:18:48.965Z,994.87
2019-03-24T03:19:49.153Z,994.84
2019-03-24T03:20:49.329Z,994.83
2019-03-24T03:21:49.516Z,994.84
2019-03-24T03:22:49.695Z,994.82
2019-03-24T03:23:49.877Z,994.77
2019-03-24T03:24:50.060Z,994.82
2019-03-24T03:25:50.241Z,994.76
2019-03-24T03:26:50.423Z,994.79
2019-03-24T03:27:50.608Z,994.79
2019-03-24T03:28:50.840Z,994.79
2019-03-24T03:29:50.976Z,994.72
2019-03-24T03:30:51.164Z,994.72
2019-03-24T03:31:51.342Z,994.75
2019-03-24T03:32:51.558Z,994.72
2019-03-24T03:33:51.735Z,994.73
2019-03-24T03:34:51.904Z,994.74
2019-03-24T03:35:52.094Z,994.75
2019-03-24T03:36:52.259Z,994.75
2019-03-24T03:37:52.446Z,994.72
2019-03-24T03:38:52.624Z,994.74
2019-03-24T03:39:57.399Z,994.72
2019-03-24T03:40:52.995Z,994.71
2019-03-24T03:41:53.165Z,994.75
2019-03-24T03:42:53.363Z,994.72
2019-03-24T03:43:53.536Z,994.74
2019-03-24T03:44:53.718Z,994.72
2019-03-24T03:45:53.897Z,994.70
2019-03-24T03:46:54.082Z,994.68
2019-03-24T03:47:54.270Z,994.68
2019-03-24T03:48:54.463Z,994.61
2019-03-24T03:49:54.629Z,994.62
2019-03-24T03:50:54.811Z,994.65
2019-03-24T03:51:55.019Z,994.62
2019-03-24T03:52:55.182Z,994.67
2019-03-24T03:53:55.367Z,994.60
2019-03-24T03:54:55.552Z,994.64
2019-03-24T03:55:55.734Z,994.63
2019-03-24T03:56:55.918Z,994.59
2019-03-24T03:57:56.106Z,994.61
2019-03-24T03:58:56.297Z,994.60
2019-03-24T03:59:56.479Z,994.60
2019-03-24T04:00:56.660Z,994.59
2019-03-24T04:01:56.850Z,994.57
2019-03-24T04:02:57.038Z,994.58
2019-03-24T04:03:57.213Z,994.62
2019-03-24T04:04:57.410Z,994.62
2019-03-24T04:05:57.580Z,994.62
2019-03-24T04:06:57.759Z,994.66
2019-03-24T04:07:57.943Z,994.64
2019-03-24T04:08:58.122Z,994.63
2019-03-24T04:09:58.313Z,994.63
2019-03-24T04:10:58.489Z,994.70
2019-03-24T04:11:58.677Z,994.70
2019-03-24T04:12:58.857Z,994.67
2019-03-24T04:13:59.043Z,994.71
2019-03-24T04:14:59.232Z,994.71
2019-03-24T04:15:59.415Z,994.71
2019-03-24T04:17:07.258Z,994.68
2019-03-24T04:17:59.790Z,994.67
2019-03-24T04:18:59.957Z,994.66
2019-03-24T04:20:00.478Z,994.62
2019-03-24T04:21:00.323Z,994.62
2019-03-24T04:22:00.508Z,994.62
2019-03-24T04:23:00.712Z,994.59
2019-03-24T04:24:00.872Z,994.62
2019-03-24T04:25:01.061Z,994.63
2019-03-24T04:26:01.251Z,994.58
2019-03-24T04:27:01.429Z,994.57
2019-03-24T04:28:01.615Z,994.54
2019-03-24T04:29:01.800Z,994.51
2019-03-24T04:30:02.011Z,994.50
2019-03-24T04:31:02.168Z,994.49
2019-03-24T04:32:02.364Z,994.51
2019-03-24T04:33:02.530Z,994.51
2019-03-24T04:34:02.719Z,994.53
2019-03-24T04:35:02.905Z,994.54
2019-03-24T04:36:03.084Z,994.57
2019-03-24T04:37:03.276Z,994.58
2019-03-24T04:38:03.455Z,994.53
2019-03-24T04:39:03.672Z,994.55
2019-03-24T04:40:03.823Z,994.49
2019-03-24T04:41:04.003Z,994.52
2019-03-24T04:42:04.188Z,994.51
2019-03-24T04:43:04.374Z,994.50
2019-03-24T04:44:04.551Z,994.50
2019-03-24T04:45:04.736Z,994.53
2019-03-24T04:46:04.935Z,994.52
2019-03-24T04:47:05.124Z,994.50
2019-03-24T04:48:05.295Z,994.51
2019-03-24T04:49:05.480Z,994.51
2019-03-24T04:50:05.663Z,994.49
2019-03-24T04:51:05.845Z,994.49
2019-03-24T04:52:06.027Z,994.47
2019-03-24T04:53:06.213Z,994.46
2019-03-24T04:54:06.391Z,994.43
2019-03-24T04:55:06.581Z,994.48
2019-03-24T04:56:06.778Z,994.49
2019-03-24T04:57:06.966Z,994.47
2019-03-24T04:58:07.143Z,994.48
2019-03-24T04:59:07.325Z,994.45
2019-03-24T05:00:07.513Z,994.47
2019-03-24T05:01:07.699Z,994.48
2019-03-24T05:02:07.886Z,994.48
2019-03-24T05:03:08.067Z,994.48
2019-03-24T05:04:08.250Z,994.46
2019-03-24T05:05:08.434Z,994.51
2019-03-24T05:06:08.613Z,994.49
2019-03-24T05:07:08.799Z,994.46
2019-03-24T05:08:08.982Z,994.48
2019-03-24T05:09:09.185Z,994.49
2019-03-24T05:10:09.367Z,994.49
2019-03-24T05:11:09.552Z,994.47
2019-03-24T05:12:09.730Z,994.47
2019-03-24T05:13:09.913Z,994.47
2019-03-24T05:14:10.104Z,994.45
2019-03-24T05:15:10.281Z,994.48
2019-03-24T05:16:10.462Z,994.45
2019-03-24T05:17:10.651Z,994.44
2019-03-24T05:18:10.832Z,994.43
2019-03-24T05:19:11.024Z,994.43
2019-03-24T05:20:11.205Z,994.44
2019-03-24T05:21:11.400Z,994.48
2019-03-24T05:22:11.574Z,994.43
2019-03-24T05:23:11.754Z,994.41
2019-03-24T05:24:11.938Z,994.37
2019-03-24T05:25:12.121Z,994.39
2019-03-24T05:26:12.314Z,994.40
2019-03-24T05:27:12.502Z,994.41
2019-03-24T05:28:12.680Z,994.39
2019-03-24T05:29:12.867Z,994.38
2019-03-24T05:30:13.047Z,994.39
2019-03-24T05:31:13.232Z,994.32
2019-03-24T05:32:13.418Z,994.35
2019-03-24T05:33:13.611Z,994.40
2019-03-24T05:34:13.780Z,994.35
2019-03-24T05:35:13.965Z,994.35
2019-03-24T05:36:14.142Z,994.31
2019-03-24T05:37:14.328Z,994.32
2019-03-24T05:38:14.522Z,994.33
2019-03-24T05:39:14.715Z,994.38
2019-03-24T05:40:14.888Z,994.37
2019-03-24T05:41:15.074Z,994.35
2019-03-24T05:42:15.253Z,994.33
2019-03-24T05:43:15.443Z,994.34
2019-03-24T05:44:15.625Z,994.32
2019-03-24T05:45:15.809Z,994.31
2019-03-24T05:46:15.993Z,994.28
2019-03-24T05:47:16.177Z,994.24
2019-03-24T05:48:16.361Z,994.25
2019-03-24T05:49:16.542Z,994.25
2019-03-24T05:50:16.731Z,994.25
2019-03-24T05:51:16.916Z,994.23
2019-03-24T05:52:17.113Z,994.28
2019-03-24T05:53:17.296Z,994.26
2019-03-24T05:54:17.486Z,994.24
2019-03-24T05:55:17.665Z,994.23
2019-03-24T05:56:17.847Z,994.22
2019-03-24T05:57:18.059Z,994.27
2019-03-24T05:58:18.275Z,994.23
2019-03-24T05:59:18.464Z,994.24
2019-03-24T06:00:18.643Z,994.24
2019-03-24T06:01:18.826Z,994.22
2019-03-24T06:02:19.013Z,994.25
2019-03-24T06:03:19.191Z,994.30
2019-03-24T06:04:19.378Z,994.25
2019-03-24T06:05:19.561Z,994.25
2019-03-24T06:06:19.745Z,994.29
2019-03-24T06:07:19.930Z,994.27
2019-03-24T06:08:20.128Z,994.28
2019-03-24T06:09:20.302Z,994.25
2019-03-24T06:10:20.500Z,994.30
2019-03-24T06:11:20.671Z,994.30
2019-03-24T06:12:20.852Z,994.32
2019-03-24T06:13:21.042Z,994.28
2019-03-24T06:14:21.229Z,994.31
2019-03-24T06:15:21.422Z,994.31
2019-03-24T06:16:21.601Z,994.30
2019-03-24T06:17:21.782Z,994.30
2019-03-24T06:18:21.972Z,994.33
2019-03-24T06:19:22.162Z,994.35
2019-03-24T06:20:22.339Z,994.30
2019-03-24T06:21:22.533Z,994.32
2019-03-24T06:22:22.722Z,994.30
2019-03-24T06:23:22.902Z,994.30
2019-03-24T06:24:23.078Z,994.34
2019-03-24T06:25:23.266Z,994.36
2019-03-24T06:26:23.449Z,994.34
2019-03-24T06:27:23.640Z,994.28
2019-03-24T06:28:23.825Z,994.33
2019-03-24T06:29:24.013Z,994.29
2019-03-24T06:30:24.201Z,994.35
2019-03-24T06:31:24.382Z,994.33
2019-03-24T06:32:24.573Z,994.32
2019-03-24T06:33:24.755Z,994.30
2019-03-24T06:34:24.944Z,994.28
2019-03-24T06:35:25.117Z,994.30
2019-03-24T06:36:25.309Z,994.29
2019-03-24T06:37:25.491Z,994.25
2019-03-24T06:38:25.678Z,994.29
2019-03-24T06:39:25.858Z,994.30
2019-03-24T06:40:26.040Z,994.32
2019-03-24T06:41:26.225Z,994.29
2019-03-24T06:42:26.409Z,994.26
2019-03-24T06:43:26.604Z,994.28
2019-03-24T06:44:26.797Z,994.28
2019-03-24T06:45:28.793Z,994.29
2019-03-24T06:46:27.168Z,994.30
2019-03-24T06:47:27.349Z,994.32
2019-03-24T06:48:27.540Z,994.32
2019-03-24T06:49:27.724Z,994.32
2019-03-24T06:50:27.907Z,994.30
2019-03-24T06:51:28.095Z,994.31
2019-03-24T06:52:28.286Z,994.32
2019-03-24T06:53:28.472Z,994.34
2019-03-24T06:54:28.649Z,994.36
2019-03-24T06:55:28.838Z,994.35
2019-03-24T06:56:29.019Z,994.35
2019-03-24T06:57:29.209Z,994.39
2019-03-24T06:58:29.392Z,994.41
2019-03-24T06:59:29.575Z,994.43
2019-03-24T07:00:29.761Z,994.43
2019-03-24T07:01:29.943Z,994.43
2019-03-24T07:02:30.126Z,994.43
2019-03-24T07:03:32.636Z,994.39
2019-03-24T07:04:30.498Z,994.39
2019-03-24T07:05:30.683Z,994.37
2019-03-24T07:06:30.871Z,994.33
2019-03-24T07:07:31.057Z,994.33
2019-03-24T07:08:31.246Z,994.36
2019-03-24T07:09:31.426Z,994.35
2019-03-24T07:10:31.615Z,994.35
2019-03-24T07:11:31.796Z,994.30
2019-03-24T07:12:31.986Z,994.31
2019-03-24T07:13:32.165Z,994.32
2019-03-24T07:14:32.349Z,994.30
2019-03-24T07:15:32.532Z,994.32
2019-03-24T07:16:32.720Z,994.30
2019-03-24T07:17:32.906Z,994.32
2019-03-24T07:18:33.089Z,994.26
2019-03-24T07:19:33.285Z,994.29
2019-03-24T07:20:33.467Z,994.27
2019-03-24T07:21:33.642Z,994.24
2019-03-24T07:22:33.839Z,994.31
2019-03-24T07:23:34.023Z,994.28
2019-03-24T07:24:34.209Z,994.35
2019-03-24T07:25:34.397Z,994.28
2019-03-24T07:26:34.582Z,994.35
2019-03-24T07:27:34.763Z,994.32
2019-03-24T07:28:34.948Z,994.34
2019-03-24T07:29:35.139Z,994.40
2019-03-24T07:30:35.328Z,994.40
2019-03-24T07:31:35.514Z,994.41
2019-03-24T07:32:35.711Z,994.42
2019-03-24T07:33:35.896Z,994.44
2019-03-24T07:34:36.091Z,994.42
2019-03-24T07:35:36.275Z,994.43
2019-03-24T07:36:36.459Z,994.39
2019-03-24T07:37:36.644Z,994.40
2019-03-24T07:38:36.830Z,994.40
2019-03-24T07:39:37.020Z,994.38
2019-03-24T07:40:37.207Z,994.41
2019-03-24T07:41:37.387Z,994.37
2019-03-24T07:42:37.585Z,994.39
2019-03-24T07:43:37.767Z,994.39
2019-03-24T07:44:37.951Z,994.41
2019-03-24T07:45:38.144Z,994.40
2019-03-24T07:46:38.328Z,994.34
2019-03-24T07:47:38.515Z,994.38
2019-03-24T07:48:38.717Z,994.36
2019-03-24T07:49:38.901Z,994.35
2019-03-24T07:50:39.088Z,994.33
2019-03-24T07:51:39.270Z,994.37
2019-03-24T07:52:39.457Z,994.35
2019-03-24T07:53:39.650Z,994.35
2019-03-24T07:54:39.841Z,994.39
2019-03-24T07:55:40.031Z,994.35
2019-03-24T07:56:40.215Z,994.35
2019-03-24T07:57:40.409Z,994.34
2019-03-24T07:58:40.601Z,994.33
2019-03-24T07:59:40.780Z,994.30
2019-03-24T08:00:40.968Z,994.29
2019-03-24T08:01:41.165Z,994.27
2019-03-24T08:02:50.693Z,994.27
2019-03-24T08:03:41.551Z,994.29
2019-03-24T08:04:41.749Z,994.31
2019-03-24T08:05:41.924Z,994.33
2019-03-24T08:06:42.106Z,994.28
2019-03-24T08:07:42.291Z,994.32
2019-03-24T08:08:44.510Z,994.27
2019-03-24T08:09:42.664Z,994.25
2019-03-24T08:10:42.854Z,994.28
2019-03-24T08:11:43.044Z,994.25
2019-03-24T08:12:43.235Z,994.26
2019-03-24T08:13:53.378Z,994.21
2019-03-24T08:14:43.593Z,994.22
2019-03-24T08:15:43.790Z,994.20
2019-03-24T08:16:43.979Z,994.19
2019-03-24T08:17:44.170Z,994.18
2019-03-24T08:18:44.357Z,994.14
2019-03-24T08:19:44.541Z,994.14
2019-03-24T08:20:44.730Z,994.14
2019-03-24T08:21:44.912Z,994.12
2019-03-24T08:22:45.107Z,994.11
2019-03-24T08:23:45.303Z,994.10
2019-03-24T08:24:45.490Z,994.13
2019-03-24T08:25:45.693Z,994.10
2019-03-24T08:26:45.871Z,994.09
2019-03-24T08:27:46.060Z,994.08
2019-03-24T08:28:46.241Z,994.10
2019-03-24T08:29:46.433Z,994.08
2019-03-24T08:30:46.625Z,994.05
2019-03-24T08:31:46.807Z,994.05
2019-03-24T08:32:46.998Z,994.11
2019-03-24T08:33:47.188Z,994.09
2019-03-24T08:34:48.408Z,994.10
2019-03-24T08:35:47.569Z,994.11
2019-03-24T08:36:47.744Z,994.10
2019-03-24T08:37:47.943Z,994.12
2019-03-24T08:38:48.123Z,994.08
2019-03-24T08:39:48.319Z,994.11
2019-03-24T08:40:48.503Z,994.06
2019-03-24T08:41:48.691Z,994.05
2019-03-24T08:42:48.876Z,994.07
2019-03-24T08:43:49.061Z,994.06
2019-03-24T08:44:49.250Z,994.06
2019-03-24T08:45:49.430Z,994.09
2019-03-24T08:46:49.626Z,994.03
2019-03-24T08:47:49.808Z,994.03
2019-03-24T08:48:49.997Z,994.04
2019-03-24T08:49:50.194Z,994.04
2019-03-24T08:50:50.386Z,994.02
2019-03-24T08:51:51.306Z,994.02
2019-03-24T08:52:50.778Z,994.00
2019-03-24T08:53:50.960Z,993.98
2019-03-24T08:54:51.149Z,993.99
2019-03-24T08:55:51.339Z,993.97
2019-03-24T08:56:51.524Z,993.94
2019-03-24T08:57:51.711Z,993.96
2019-03-24T08:58:51.909Z,994.00
2019-03-24T08:59:52.087Z,993.98
2019-03-24T09:00:52.304Z,993.99
2019-03-24T09:01:52.508Z,993.93
2019-03-24T09:02:52.694Z,993.92
2019-03-24T09:03:52.895Z,993.93
2019-03-24T09:04:53.080Z,993.88
2019-03-24T09:05:53.269Z,993.93
2019-03-24T09:06:53.457Z,993.94
2019-03-24T09:07:53.642Z,993.89
2019-03-24T09:08:53.839Z,993.90
2019-03-24T09:09:54.059Z,993.92
2019-03-24T09:10:54.235Z,993.92
2019-03-24T09:11:54.433Z,993.92
2019-03-24T09:12:54.634Z,993.87
2019-03-24T09:13:54.811Z,993.90
2019-03-24T09:14:55.003Z,993.94
2019-03-24T09:15:55.195Z,993.92
2019-03-24T09:16:55.384Z,993.91
2019-03-24T09:17:55.587Z,993.89
2019-03-24T09:18:55.782Z,993.83
2019-03-24T09:19:55.968Z,993.88
2019-03-24T09:20:56.151Z,993.84
2019-03-24T09:21:56.344Z,993.83
2019-03-24T09:22:56.531Z,993.83
2019-03-24T09:23:56.718Z,993.82
2019-03-24T09:24:56.910Z,993.85
2019-03-24T09:25:57.098Z,993.85
2019-03-24T09:26:57.285Z,993.83
2019-03-24T09:27:57.480Z,993.76
2019-03-24T09:28:59.317Z,993.77
2019-03-24T09:29:57.863Z,993.77
2019-03-24T09:30:58.051Z,993.75
2019-03-24T09:31:58.239Z,993.77
2019-03-24T09:32:58.432Z,993.77
2019-03-24T09:33:58.624Z,993.82
2019-03-24T09:34:58.808Z,993.85
2019-03-24T09:35:58.998Z,993.85
2019-03-24T09:36:59.196Z,993.83
2019-03-24T09:37:59.381Z,993.83
2019-03-24T09:38:59.577Z,993.83
2019-03-24T09:39:59.768Z,993.83
2019-03-24T09:40:59.973Z,993.83
2019-03-24T09:42:00.168Z,993.83
2019-03-24T09:43:00.364Z,993.81
2019-03-24T09:44:00.546Z,993.80
2019-03-24T09:45:00.750Z,993.82
2019-03-24T09:46:00.931Z,993.87
2019-03-24T09:47:01.120Z,993.87
2019-03-24T09:48:01.306Z,993.83
2019-03-24T09:49:03.295Z,993.88
2019-03-24T09:50:01.682Z,993.87
2019-03-24T09:51:01.891Z,993.89
2019-03-24T09:52:02.083Z,993.79
2019-03-24T09:53:02.271Z,993.79
2019-03-24T09:54:02.462Z,993.81
2019-03-24T09:55:02.653Z,993.85
2019-03-24T09:56:02.838Z,993.82
2019-03-24T09:57:03.048Z,993.82
2019-03-24T09:58:03.237Z,993.82
2019-03-24T09:59:03.424Z,993.83
2019-03-24T10:00:03.621Z,993.86
2019-03-24T10:01:03.824Z,993.82
2019-03-24T10:02:04.007Z,993.90
2019-03-24T10:03:04.207Z,993.87
2019-03-24T10:04:04.441Z,993.87
2019-03-24T10:05:04.598Z,993.84
2019-03-24T10:06:04.797Z,993.89
2019-03-24T10:07:04.975Z,993.91
2019-03-24T10:08:05.175Z,993.88
2019-03-24T10:09:05.380Z,993.82
2019-03-24T10:10:05.564Z,993.85
2019-03-24T10:11:05.772Z,993.79
2019-03-24T10:12:05.981Z,993.81
2019-03-24T10:13:06.180Z,993.73
2019-03-24T10:14:06.392Z,993.77
2019-03-24T10:15:06.599Z,993.70
2019-03-24T10:16:06.785Z,993.66
2019-03-24T10:17:06.992Z,993.65
2019-03-24T10:18:07.188Z,993.64
2019-03-24T10:19:13.888Z,993.64
2019-03-24T10:20:07.597Z,993.65
2019-03-24T10:21:07.777Z,993.66
2019-03-24T10:22:07.989Z,993.61
2019-03-24T10:23:08.185Z,993.63
2019-03-24T10:24:08.371Z,993.58
2019-03-24T10:25:08.584Z,993.58
2019-03-24T10:26:08.792Z,993.53
2019-03-24T10:27:09.001Z,993.50
2019-03-24T10:28:09.202Z,993.52
2019-03-24T10:29:09.406Z,993.47
2019-03-24T10:30:09.609Z,993.45
2019-03-24T10:31:09.810Z,993.51
2019-03-24T10:32:10.007Z,993.41
2019-03-24T10:33:10.201Z,993.43
2019-03-24T10:34:10.405Z,993.45
2019-03-24T10:35:10.607Z,993.45
2019-03-24T10:36:10.800Z,993.43
2019-03-24T10:37:11.006Z,993.49
2019-03-24T10:38:11.202Z,993.49
2019-03-24T10:39:11.404Z,993.54
2019-03-24T10:40:11.602Z,993.54
2019-03-24T10:41:11.796Z,993.49
2019-03-24T10:42:11.997Z,993.45
2019-03-24T10:43:12.191Z,993.48
2019-03-24T10:44:12.394Z,993.51
2019-03-24T10:45:12.598Z,993.51
2019-03-24T10:46:12.797Z,993.53
2019-03-24T10:47:12.996Z,993.44
2019-03-24T10:48:13.194Z,993.45
2019-03-24T10:49:24.115Z,993.47
2019-03-24T10:50:14.528Z,993.46
2019-03-24T10:51:13.782Z,993.44
2019-03-24T10:52:14.038Z,993.41
2019-03-24T10:53:14.204Z,993.33
2019-03-24T10:54:14.405Z,993.25
2019-03-24T10:55:14.599Z,993.25
2019-03-24T10:56:14.797Z,993.20
2019-03-24T10:57:15.006Z,993.22
2019-03-24T10:58:15.207Z,993.23
2019-03-24T10:59:15.414Z,993.19
2019-03-24T11:00:15.615Z,993.21
2019-03-24T11:01:15.809Z,993.14
2019-03-24T11:02:16.005Z,993.19
2019-03-24T11:03:16.205Z,993.16
2019-03-24T11:04:16.414Z,993.11
2019-03-24T11:05:16.620Z,993.08
2019-03-24T11:06:16.815Z,993.04
2019-03-24T11:07:17.009Z,993.02
2019-03-24T11:08:17.205Z,992.99
2019-03-24T11:09:17.395Z,992.99
2019-03-24T11:10:17.615Z,992.94
2019-03-24T11:11:17.797Z,992.99
2019-03-24T11:12:18.004Z,992.94
2019-03-24T11:13:18.197Z,992.94
2019-03-24T11:14:18.400Z,992.91
2019-03-24T11:15:18.605Z,992.92
2019-03-24T11:16:18.796Z,992.87
2019-03-24T11:17:18.989Z,992.89
2019-03-24T11:18:19.202Z,992.86
2019-03-24T11:19:19.394Z,992.79
2019-03-24T11:20:19.582Z,992.80
2019-03-24T11:21:19.790Z,992.76
2019-03-24T11:22:19.974Z,992.76
2019-03-24T11:23:20.164Z,992.71
2019-03-24T11:24:20.371Z,992.72
2019-03-24T11:25:20.566Z,992.68
2019-03-24T11:26:20.757Z,992.69
2019-03-24T11:27:20.961Z,992.76
2019-03-24T11:28:21.150Z,992.74
2019-03-24T11:29:21.341Z,992.71
2019-03-24T11:30:21.537Z,992.72
2019-03-24T11:31:21.720Z,992.70
2019-03-24T11:32:21.924Z,992.69
2019-03-24T11:33:22.113Z,992.66
2019-03-24T11:34:22.306Z,992.64
2019-03-24T11:35:22.495Z,992.64
2019-03-24T11:36:22.690Z,992.67
2019-03-24T11:37:22.891Z,992.64
2019-03-24T11:38:23.079Z,992.63
2019-03-24T11:39:23.290Z,992.62
2019-03-24T11:40:23.482Z,992.60
2019-03-24T11:41:23.673Z,992.60
2019-03-24T11:42:23.866Z,992.59
2019-03-24T11:43:24.060Z,992.54
2019-03-24T11:44:24.266Z,992.55
2019-03-24T11:45:24.470Z,992.49
2019-03-24T11:46:24.669Z,992.50
2019-03-24T11:47:26.776Z,992.46
2019-03-24T11:48:25.036Z,992.45
2019-03-24T11:49:25.224Z,992.44
2019-03-24T11:50:25.436Z,992.45
2019-03-24T11:51:25.620Z,992.47
2019-03-24T11:52:25.856Z,992.43
2019-03-24T11:53:26.062Z,992.42
2019-03-24T11:54:47.257Z,992.43
2019-03-24T11:55:26.436Z,992.38
2019-03-24T11:56:26.620Z,992.41
2019-03-24T11:57:26.813Z,992.37
2019-03-24T11:58:27.010Z,992.42
2019-03-24T11:59:27.207Z,992.40
2019-03-24T12:00:27.393Z,992.33
2019-03-24T12:01:37.774Z,992.33
2019-03-24T12:02:27.773Z,992.34
2019-03-24T12:03:28.011Z,992.30
2019-03-24T12:04:28.150Z,992.25
2019-03-24T12:05:28.344Z,992.31
2019-03-24T12:06:28.537Z,992.30
2019-03-24T12:07:28.718Z,992.28
2019-03-24T12:08:28.904Z,992.29
2019-03-24T12:09:29.091Z,992.30
2019-03-24T12:10:29.292Z,992.31
2019-03-24T12:11:29.472Z,992.27
2019-03-24T12:12:29.656Z,992.22
2019-03-24T12:13:29.855Z,992.27
2019-03-24T12:14:30.039Z,992.28
2019-03-24T12:15:30.227Z,992.22
2019-03-24T12:16:30.414Z,992.24
2019-03-24T12:17:30.598Z,992.24
2019-03-24T12:18:30.796Z,992.25
2019-03-24T12:19:30.994Z,992.24
2019-03-24T12:20:31.183Z,992.25
2019-03-24T12:21:31.386Z,992.25
2019-03-24T12:22:31.573Z,992.25
2019-03-24T12:23:31.763Z,992.24
2019-03-24T12:24:31.951Z,992.22
2019-03-24T12:25:32.154Z,992.23
2019-03-24T12:26:32.333Z,992.20
2019-03-24T12:27:32.524Z,992.19
2019-03-24T12:28:32.716Z,992.19
2019-03-24T12:29:32.914Z,992.20
2019-03-24T12:30:33.089Z,992.15
2019-03-24T12:31:33.276Z,992.17
2019-03-24T12:32:33.464Z,992.16
2019-03-24T12:33:33.657Z,992.16